sensor_id;sensor_type;location;lat;lon;timestamp;pressure;altitude;pressure_sealevel;temperature;humidity
65329;BME280;51941;52.210;5.158;2023-03-14T00:01:45;98780.94;;;10.65;100.00
65329;BME280;51941;52.210;5.158;2023-03-14T00:04:13;98786.19;;;10.70;100.00
65329;BME280;51941;52.210;5.158;2023-03-14T00:06:39;98776.66;;;10.75;100.00
65329;BME280;51941;52.210;5.158;2023-03-14T00:09:07;98774.53;;;10.77;100.00
65329;BME280;51941;52.210;5.158;2023-03-14T00:11:33;98747.38;;;10.61;100.00
65329;BME280;51941;52.210;5.158;2023-03-14T00:14:00;98770.22;;;10.81;100.00
65329;BME280;51941;52.210;5.158;2023-03-14T00:16:28;98765.88;;;10.90;100.00
65329;BME280;51941;52.210;5.158;2023-03-14T00:18:54;98759.75;;;10.94;100.00
65329;BME280;51941;52.210;5.158;2023-03-14T00:21:22;98771.06;;;11.00;100.00
65329;BME280;51941;52.210;5.158;2023-03-14T00:23:49;98762.06;;;11.01;100.00
65329;BME280;51941;52.210;5.158;2023-03-14T00:26:17;98768.34;;;11.05;100.00
65329;BME280;51941;52.210;5.158;2023-03-14T00:28:45;98753.59;;;10.99;100.00
65329;BME280;51941;52.210;5.158;2023-03-14T00:31:14;98763.34;;;11.03;100.00
65329;BME280;51941;52.210;5.158;2023-03-14T00:33:41;98745.38;;;11.00;100.00
65329;BME280;51941;52.210;5.158;2023-03-14T00:36:10;98766.88;;;11.18;100.00
65329;BME280;51941;52.210;5.158;2023-03-14T00:38:40;98757.31;;;11.22;100.00
65329;BME280;51941;52.210;5.158;2023-03-14T00:41:09;98764.94;;;11.23;100.00
65329;BME280;51941;52.210;5.158;2023-03-14T00:43:36;98767.09;;;11.21;100.00
65329;BME280;51941;52.210;5.158;2023-03-14T00:46:04;98771.91;;;11.19;100.00
65329;BME280;51941;52.210;5.158;2023-03-14T00:48:31;98766.66;;;11.14;100.00
65329;BME280;51941;52.210;5.158;2023-03-14T00:51:00;98763.44;;;11.17;100.00
65329;BME280;51941;52.210;5.158;2023-03-14T00:53:26;98768.81;;;11.12;100.00
65329;BME280;51941;52.210;5.158;2023-03-14T00:55:54;98782.84;;;11.13;100.00
65329;BME280;51941;52.210;5.158;2023-03-14T00:58:21;98776.25;;;11.10;100.00
65329;BME280;51941;52.210;5.158;2023-03-14T01:00:48;98770.44;;;11.08;100.00
65329;BME280;51941;52.210;5.158;2023-03-14T01:03:16;98759.88;;;10.84;100.00
65329;BME280;51941;52.210;5.158;2023-03-14T01:05:42;98746.84;;;10.88;100.00
65329;BME280;51941;52.210;5.158;2023-03-14T01:08:09;98782.16;;;11.02;100.00
65329;BME280;51941;52.210;5.158;2023-03-14T01:10:37;98783.22;;;11.01;100.00
65329;BME280;51941;52.210;5.158;2023-03-14T01:13:05;98774.91;;;10.89;100.00
65329;BME280;51941;52.210;5.158;2023-03-14T01:15:32;98778.06;;;10.91;100.00
65329;BME280;51941;52.210;5.158;2023-03-14T01:17:59;98751.00;;;10.70;100.00
65329;BME280;51941;52.210;5.158;2023-03-14T01:20:26;98773.31;;;10.88;100.00
65329;BME280;51941;52.210;5.158;2023-03-14T01:22:53;98758.38;;;10.78;100.00
65329;BME280;51941;52.210;5.158;2023-03-14T01:25:20;98767.03;;;10.84;100.00
65329;BME280;51941;52.210;5.158;2023-03-14T01:27:47;98777.09;;;10.82;100.00
65329;BME280;51941;52.210;5.158;2023-03-14T01:30:16;98773.53;;;10.67;100.00
65329;BME280;51941;52.210;5.158;2023-03-14T01:32:43;98786.25;;;10.65;100.00
65329;BME280;51941;52.210;5.158;2023-03-14T01:35:10;98785.78;;;10.58;100.00
65329;BME280;51941;52.210;5.158;2023-03-14T01:37:37;98773.19;;;10.50;100.00
65329;BME280;51941;52.210;5.158;2023-03-14T01:40:10;98780.53;;;10.53;100.00
65329;BME280;51941;52.210;5.158;2023-03-14T01:42:44;98787.94;;;10.56;100.00
65329;BME280;51941;52.210;5.158;2023-03-14T01:48:13;98777.41;;;10.51;100.00
65329;BME280;51941;52.210;5.158;2023-03-14T01:50:39;98780.06;;;10.51;100.00
65329;BME280;51941;52.210;5.158;2023-03-14T01:53:07;98773.47;;;10.49;100.00
65329;BME280;51941;52.210;5.158;2023-03-14T01:55:34;98773.50;;;10.44;100.00
65329;BME280;51941;52.210;5.158;2023-03-14T01:58:03;98767.13;;;10.45;100.00
65329;BME280;51941;52.210;5.158;2023-03-14T02:00:31;98770.53;;;10.50;100.00
65329;BME280;51941;52.210;5.158;2023-03-14T02:03:00;98741.13;;;10.28;100.00
65329;BME280;51941;52.210;5.158;2023-03-14T02:05:32;98766.59;;;10.48;100.00
65329;BME280;51941;52.210;5.158;2023-03-14T02:08:06;98752.06;;;10.45;100.00
65329;BME280;51941;52.210;5.158;2023-03-14T02:10:43;98751.50;;;10.48;100.00
65329;BME280;51941;52.210;5.158;2023-03-14T02:13:11;98746.72;;;10.50;100.00
65329;BME280;51941;52.210;5.158;2023-03-14T02:15:57;98733.59;;;10.40;100.00
65329;BME280;51941;52.210;5.158;2023-03-14T02:18:51;98744.13;;;10.45;100.00
65329;BME280;51941;52.210;5.158;2023-03-14T02:21:47;98744.38;;;10.49;100.00
65329;BME280;51941;52.210;5.158;2023-03-14T02:24:25;98732.44;;;10.51;100.00
65329;BME280;51941;52.210;5.158;2023-03-14T02:27:11;98710.41;;;10.32;100.00
65329;BME280;51941;52.210;5.158;2023-03-14T02:29:51;98729.03;;;10.46;100.00
65329;BME280;51941;52.210;5.158;2023-03-14T02:32:20;98728.22;;;10.50;100.00
65329;BME280;51941;52.210;5.158;2023-03-14T02:34:51;98737.41;;;10.53;100.00
65329;BME280;51941;52.210;5.158;2023-03-14T02:37:20;98742.44;;;10.54;100.00
65329;BME280;51941;52.210;5.158;2023-03-14T02:39:48;98732.72;;;10.50;100.00
65329;BME280;51941;52.210;5.158;2023-03-14T02:42:18;98728.84;;;10.42;100.00
65329;BME280;51941;52.210;5.158;2023-03-14T02:44:54;98723.75;;;10.46;100.00
65329;BME280;51941;52.210;5.158;2023-03-14T02:47:26;98697.22;;;10.27;100.00
65329;BME280;51941;52.210;5.158;2023-03-14T02:49:59;98721.91;;;10.46;100.00
65329;BME280;51941;52.210;5.158;2023-03-14T02:52:26;98720.59;;;10.44;100.00
65329;BME280;51941;52.210;5.158;2023-03-14T02:54:53;98716.88;;;10.45;100.00
65329;BME280;51941;52.210;5.158;2023-03-14T02:57:21;98725.88;;;10.44;100.00
65329;BME280;51941;52.210;5.158;2023-03-14T02:59:48;98716.09;;;10.44;100.00
65329;BME280;51941;52.210;5.158;2023-03-14T03:02:18;98714.91;;;10.31;100.00
65329;BME280;51941;52.210;5.158;2023-03-14T03:04:45;98728.03;;;10.42;100.00
65329;BME280;51941;52.210;5.158;2023-03-14T03:07:11;98714.84;;;10.37;100.00
65329;BME280;51941;52.210;5.158;2023-03-14T03:09:38;98712.22;;;10.37;100.00
65329;BME280;51941;52.210;5.158;2023-03-14T03:12:05;98713.50;;;10.39;100.00
65329;BME280;51941;52.210;5.158;2023-03-14T03:14:34;98714.91;;;10.31;100.00
65329;BME280;51941;52.210;5.158;2023-03-14T03:17:03;98714.84;;;10.37;100.00
65329;BME280;51941;52.210;5.158;2023-03-14T03:19:31;98710.63;;;10.36;100.00
65329;BME280;51941;52.210;5.158;2023-03-14T03:21:58;98711.47;;;10.31;100.00
65329;BME280;51941;52.210;5.158;2023-03-14T03:24:25;98711.25;;;10.27;100.00
65329;BME280;51941;52.210;5.158;2023-03-14T03:26:54;98714.91;;;10.31;100.00
65329;BME280;51941;52.210;5.158;2023-03-14T03:29:20;98696.41;;;10.31;100.00
65329;BME280;51941;52.210;5.158;2023-03-14T03:31:48;98712.22;;;10.37;100.00
65329;BME280;51941;52.210;5.158;2023-03-14T03:34:16;98697.75;;;10.29;100.00
65329;BME280;51941;52.210;5.158;2023-03-14T03:36:44;98706.66;;;10.38;100.00
65329;BME280;51941;52.210;5.158;2023-03-14T03:39:11;98664.88;;;10.11;100.00
65329;BME280;51941;52.210;5.158;2023-03-14T03:41:38;98703.66;;;10.45;100.00
65329;BME280;51941;52.210;5.158;2023-03-14T03:44:05;98707.59;;;10.47;100.00
65329;BME280;51941;52.210;5.158;2023-03-14T03:46:32;98675.28;;;10.26;100.00
65329;BME280;51941;52.210;5.158;2023-03-14T03:49:00;98698.09;;;10.46;100.00
65329;BME280;51941;52.210;5.158;2023-03-14T03:51:28;98699.16;;;10.45;100.00
65329;BME280;51941;52.210;5.158;2023-03-14T03:53:56;98703.63;;;10.50;100.00
65329;BME280;51941;52.210;5.158;2023-03-14T03:56:32;98688.91;;;10.39;100.00
65329;BME280;51941;52.210;5.158;2023-03-14T03:59:24;98699.66;;;10.47;100.00
65329;BME280;51941;52.210;5.158;2023-03-14T04:02:04;98700.47;;;10.48;100.00
65329;BME280;51941;52.210;5.158;2023-03-14T04:04:33;98673.91;;;10.34;100.00
65329;BME280;51941;52.210;5.158;2023-03-14T04:07:01;98699.66;;;10.47;100.00
65329;BME280;51941;52.210;5.158;2023-03-14T04:09:27;98694.44;;;10.42;100.00
65329;BME280;51941;52.210;5.158;2023-03-14T04:12:17;98688.66;;;10.40;100.00
65329;BME280;51941;52.210;5.158;2023-03-14T04:14:57;98693.38;;;10.43;100.00
65329;BME280;51941;52.210;5.158;2023-03-14T04:17:24;98661.28;;;10.26;100.00
65329;BME280;51941;52.210;5.158;2023-03-14T04:19:52;98699.94;;;10.46;100.00
65329;BME280;51941;52.210;5.158;2023-03-14T04:22:21;98700.22;;;10.44;100.00
65329;BME280;51941;52.210;5.158;2023-03-14T04:24:50;98707.94;;;10.41;100.00
65329;BME280;51941;52.210;5.158;2023-03-14T04:27:18;98698.09;;;10.46;100.00
65329;BME280;51941;52.210;5.158;2023-03-14T04:29:46;98672.88;;;10.30;100.00
65329;BME280;51941;52.210;5.158;2023-03-14T04:32:16;98698.66;;;10.43;100.00
65329;BME280;51941;52.210;5.158;2023-03-14T04:34:42;98694.44;;;10.42;100.00
65329;BME280;51941;52.210;5.158;2023-03-14T04:37:11;98699.94;;;10.46;100.00
65329;BME280;51941;52.210;5.158;2023-03-14T04:39:41;98694.66;;;10.46;100.00
65329;BME280;51941;52.210;5.158;2023-03-14T04:42:15;98685.13;;;10.45;100.00
65329;BME280;51941;52.210;5.158;2023-03-14T04:44:42;98652.59;;;10.25;100.00
65329;BME280;51941;52.210;5.158;2023-03-14T04:47:10;98682.50;;;10.45;100.00
65329;BME280;51941;52.210;5.158;2023-03-14T04:49:38;98690.44;;;10.45;100.00
65329;BME280;51941;52.210;5.158;2023-03-14T04:52:07;98707.09;;;10.45;100.00
65329;BME280;51941;52.210;5.158;2023-03-14T04:54:36;98692.81;;;10.46;100.00
65329;BME280;51941;52.210;5.158;2023-03-14T04:57:04;98688.91;;;10.39;100.00
65329;BME280;51941;52.210;5.158;2023-03-14T04:59:33;98675.28;;;10.26;100.00
65329;BME280;51941;52.210;5.158;2023-03-14T05:02:11;98694.50;;;10.37;100.00
65329;BME280;51941;52.210;5.158;2023-03-14T05:04:53;98687.97;;;10.29;100.00
65329;BME280;51941;52.210;5.158;2023-03-14T05:07:43;98689.09;;;10.23;100.00
65329;BME280;51941;52.210;5.158;2023-03-14T05:10:24;98688.06;;;10.19;100.00
65329;BME280;51941;52.210;5.158;2023-03-14T05:13:09;98696.00;;;10.19;100.00
65329;BME280;51941;52.210;5.158;2023-03-14T05:16:06;98685.75;;;10.13;100.00
65329;BME280;51941;52.210;5.158;2023-03-14T05:18:45;98690.25;;;10.12;100.00
65329;BME280;51941;52.210;5.158;2023-03-14T05:21:34;98678.38;;;10.10;100.00
65329;BME280;51941;52.210;5.158;2023-03-14T05:24:25;98678.63;;;10.13;100.00
65329;BME280;51941;52.210;5.158;2023-03-14T05:26:53;98681.78;;;10.15;100.00
65329;BME280;51941;52.210;5.158;2023-03-14T05:29:51;98667.59;;;10.06;100.00
65329;BME280;51941;52.210;5.158;2023-03-14T05:32:21;98659.88;;;10.10;100.00
65329;BME280;51941;52.210;5.158;2023-03-14T05:34:57;98657.56;;;10.03;100.00
65329;BME280;51941;52.210;5.158;2023-03-14T05:37:41;98594.50;;;9.68;100.00
65329;BME280;51941;52.210;5.158;2023-03-14T05:40:26;98658.28;;;10.09;100.00
65329;BME280;51941;52.210;5.158;2023-03-14T05:43:04;98662.31;;;10.06;100.00
65329;BME280;51941;52.210;5.158;2023-03-14T05:45:52;98664.16;;;10.06;100.00
65329;BME280;51941;52.210;5.158;2023-03-14T05:48:28;98666.22;;;10.09;100.00
65329;BME280;51941;52.210;5.158;2023-03-14T05:51:13;98671.56;;;10.04;100.00
65329;BME280;51941;52.210;5.158;2023-03-14T05:53:59;98676.06;;;10.03;100.00
65329;BME280;51941;52.210;5.158;2023-03-14T05:56:44;98679.25;;;10.00;100.00
65329;BME280;51941;52.210;5.158;2023-03-14T05:59:41;98701.06;;;9.87;100.00
65329;BME280;51941;52.210;5.158;2023-03-14T06:02:21;98693.59;;;9.94;100.00
65329;BME280;51941;52.210;5.158;2023-03-14T06:04:58;98694.91;;;9.97;100.00
65329;BME280;51941;52.210;5.158;2023-03-14T06:07:24;98693.94;;;9.82;100.00
65329;BME280;51941;52.210;5.158;2023-03-14T06:09:52;98716.84;;;9.92;100.00
65329;BME280;51941;52.210;5.158;2023-03-14T06:12:18;98703.72;;;9.82;100.00
65329;BME280;51941;52.210;5.158;2023-03-14T06:14:47;98701.69;;;9.74;100.00
65329;BME280;51941;52.210;5.158;2023-03-14T06:17:16;98745.81;;;9.73;100.00
65329;BME280;51941;52.210;5.158;2023-03-14T06:19:58;98736.56;;;9.37;100.00
65329;BME280;51941;52.210;5.158;2023-03-14T06:22:25;98757.47;;;9.28;100.00
65329;BME280;51941;52.210;5.158;2023-03-14T06:24:53;98771.78;;;9.07;100.00
65329;BME280;51941;52.210;5.158;2023-03-14T06:27:22;98781.34;;;8.88;100.00
65329;BME280;51941;52.210;5.158;2023-03-14T06:29:54;98794.03;;;8.91;100.00
65329;BME280;51941;52.210;5.158;2023-03-14T06:32:21;98799.06;;;8.82;100.00
65329;BME280;51941;52.210;5.158;2023-03-14T06:34:51;98808.78;;;8.87;100.00
65329;BME280;51941;52.210;5.158;2023-03-14T06:37:18;98818.31;;;8.82;100.00
65329;BME280;51941;52.210;5.158;2023-03-14T06:39:46;98827.53;;;8.80;100.00
65329;BME280;51941;52.210;5.158;2023-03-14T06:42:22;98833.34;;;8.77;100.00
65329;BME280;51941;52.210;5.158;2023-03-14T06:44:51;98828.63;;;8.74;100.00
65329;BME280;51941;52.210;5.158;2023-03-14T06:47:19;98813.09;;;8.52;100.00
65329;BME280;51941;52.210;5.158;2023-03-14T06:49:46;98839.19;;;8.64;100.00
65329;BME280;51941;52.210;5.158;2023-03-14T06:52:13;98850.78;;;8.68;100.00
65329;BME280;51941;52.210;5.158;2023-03-14T06:54:40;98860.28;;;8.69;100.00
65329;BME280;51941;52.210;5.158;2023-03-14T06:57:06;98872.41;;;8.65;100.00
65329;BME280;51941;52.210;5.158;2023-03-14T06:59:33;98876.91;;;8.49;100.00
65329;BME280;51941;52.210;5.158;2023-03-14T07:02:01;98884.03;;;8.54;100.00
65329;BME280;51941;52.210;5.158;2023-03-14T07:04:29;98896.16;;;8.60;100.00
65329;BME280;51941;52.210;5.158;2023-03-14T07:06:56;98895.34;;;8.34;100.00
65329;BME280;51941;52.210;5.158;2023-03-14T07:09:23;98898.53;;;8.31;100.00
65329;BME280;51941;52.210;5.158;2023-03-14T07:11:56;98916.16;;;8.05;100.00
65329;BME280;51941;52.210;5.158;2023-03-14T07:14:23;98908.19;;;7.85;100.00
65329;BME280;51941;52.210;5.158;2023-03-14T07:16:50;98918.94;;;7.73;100.00
65329;BME280;51941;52.210;5.158;2023-03-14T07:19:17;98956.38;;;7.80;100.00
65329;BME280;51941;52.210;5.158;2023-03-14T07:21:45;98959.19;;;7.58;100.00
65329;BME280;51941;52.210;5.158;2023-03-14T07:24:14;98969.16;;;7.56;100.00
65329;BME280;51941;52.210;5.158;2023-03-14T07:26:41;98985.22;;;7.50;100.00
65329;BME280;51941;52.210;5.158;2023-03-14T07:29:09;98980.31;;;7.26;100.00
65329;BME280;51941;52.210;5.158;2023-03-14T07:31:37;99008.28;;;7.38;100.00
65329;BME280;51941;52.210;5.158;2023-03-14T07:34:04;99018.63;;;7.49;100.00
65329;BME280;51941;52.210;5.158;2023-03-14T07:36:35;99012.28;;;7.45;100.00
65329;BME280;51941;52.210;5.158;2023-03-14T07:39:04;99021.25;;;7.44;100.00
65329;BME280;51941;52.210;5.158;2023-03-14T07:41:40;99048.13;;;7.51;100.00
65329;BME280;51941;52.210;5.158;2023-03-14T07:44:41;99053.41;;;7.56;100.00
65329;BME280;51941;52.210;5.158;2023-03-14T07:47:07;99065.69;;;7.41;100.00
65329;BME280;51941;52.210;5.158;2023-03-14T07:49:34;99063.06;;;7.41;100.00
65329;BME280;51941;52.210;5.158;2023-03-14T07:52:01;99103.44;;;7.24;100.00
65329;BME280;51941;52.210;5.158;2023-03-14T07:54:29;99088.50;;;6.49;100.00
65329;BME280;51941;52.210;5.158;2023-03-14T07:56:56;99134.78;;;6.29;100.00
65329;BME280;51941;52.210;5.158;2023-03-14T07:59:24;99150.19;;;6.20;100.00
65329;BME280;51941;52.210;5.158;2023-03-14T08:01:50;99146.94;;;5.96;100.00
65329;BME280;51941;52.210;5.158;2023-03-14T08:04:17;99161.53;;;5.70;100.00
65329;BME280;51941;52.210;5.158;2023-03-14T08:06:44;99181.44;;;5.66;100.00
65329;BME280;51941;52.210;5.158;2023-03-14T08:09:10;99156.59;;;5.24;100.00
65329;BME280;51941;52.210;5.158;2023-03-14T08:11:38;99217.59;;;5.48;100.00
65329;BME280;51941;52.210;5.158;2023-03-14T08:14:05;99228.34;;;5.46;100.00
65329;BME280;51941;52.210;5.158;2023-03-14T08:16:32;99235.63;;;5.44;100.00
65329;BME280;51941;52.210;5.158;2023-03-14T08:18:59;99243.22;;;5.57;100.00
65329;BME280;51941;52.210;5.158;2023-03-14T08:21:25;99264.69;;;5.54;100.00
65329;BME280;51941;52.210;5.158;2023-03-14T08:23:52;99235.09;;;5.14;100.00
65329;BME280;51941;52.210;5.158;2023-03-14T08:26:19;99272.75;;;5.36;100.00
65329;BME280;51941;52.210;5.158;2023-03-14T08:28:47;99272.66;;;5.31;100.00
65329;BME280;51941;52.210;5.158;2023-03-14T08:31:13;99290.50;;;5.46;100.00
65329;BME280;51941;52.210;5.158;2023-03-14T08:33:40;99305.19;;;5.58;100.00
65329;BME280;51941;52.210;5.158;2023-03-14T08:36:08;99255.91;;;5.32;100.00
65329;BME280;51941;52.210;5.158;2023-03-14T08:38:35;99324.72;;;5.79;100.00
65329;BME280;51941;52.210;5.158;2023-03-14T08:41:02;99314.28;;;5.67;100.00
65329;BME280;51941;52.210;5.158;2023-03-14T08:43:30;99349.28;;;5.73;100.00
65329;BME280;51941;52.210;5.158;2023-03-14T08:45:59;99362.75;;;5.76;100.00
65329;BME280;51941;52.210;5.158;2023-03-14T08:48:27;99360.44;;;5.80;100.00
65329;BME280;51941;52.210;5.158;2023-03-14T08:50:54;99381.72;;;5.95;100.00
65329;BME280;51941;52.210;5.158;2023-03-14T08:53:21;99382.28;;;5.97;100.00
65329;BME280;51941;52.210;5.158;2023-03-14T08:55:52;99394.81;;;6.24;100.00
65329;BME280;51941;52.210;5.158;2023-03-14T08:58:19;99401.84;;;6.35;100.00
65329;BME280;51941;52.210;5.158;2023-03-14T09:00:46;99387.75;;;6.24;100.00
65329;BME280;51941;52.210;5.158;2023-03-14T09:03:14;99411.09;;;6.21;100.00
65329;BME280;51941;52.210;5.158;2023-03-14T09:05:41;99384.84;;;6.09;100.00
65329;BME280;51941;52.210;5.158;2023-03-14T09:08:09;99392.97;;;6.07;100.00
65329;BME280;51941;52.210;5.158;2023-03-14T09:10:36;99435.66;;;6.14;100.00
65329;BME280;51941;52.210;5.158;2023-03-14T09:13:03;99449.44;;;6.22;100.00
65329;BME280;51941;52.210;5.158;2023-03-14T09:15:30;99435.84;;;6.25;100.00
65329;BME280;51941;52.210;5.158;2023-03-14T09:17:57;99463.91;;;6.52;100.00
65329;BME280;51941;52.210;5.158;2023-03-14T09:20:26;99446.28;;;6.36;100.00
65329;BME280;51941;52.210;5.158;2023-03-14T09:22:52;99486.34;;;6.27;100.00
65329;BME280;51941;52.210;5.158;2023-03-14T09:25:19;99506.13;;;6.17;100.00
65329;BME280;51941;52.210;5.158;2023-03-14T09:27:46;99501.00;;;6.11;100.00
65329;BME280;51941;52.210;5.158;2023-03-14T09:30:13;99526.25;;;6.12;100.00
65329;BME280;51941;52.210;5.158;2023-03-14T09:32:39;99524.31;;;6.07;100.00
65329;BME280;51941;52.210;5.158;2023-03-14T09:35:06;99526.56;;;6.15;100.00
65329;BME280;51941;52.210;5.158;2023-03-14T09:37:35;99532.06;;;6.14;100.00
65329;BME280;51941;52.210;5.158;2023-03-14T09:40:02;99531.59;;;6.17;100.00
65329;BME280;51941;52.210;5.158;2023-03-14T09:42:37;99557.56;;;6.42;100.00
65329;BME280;51941;52.210;5.158;2023-03-14T09:45:07;99565.41;;;6.53;100.00
65329;BME280;51941;52.210;5.158;2023-03-14T09:47:37;99567.81;;;6.55;100.00
65329;BME280;51941;52.210;5.158;2023-03-14T09:50:09;99584.19;;;6.45;100.00
65329;BME280;51941;52.210;5.158;2023-03-14T09:52:39;99587.13;;;6.21;100.00
65329;BME280;51941;52.210;5.158;2023-03-14T09:55:12;99623.09;;;6.20;100.00
65329;BME280;51941;52.210;5.158;2023-03-14T09:57:41;99627.81;;;5.83;100.00
65329;BME280;51941;52.210;5.158;2023-03-14T10:00:14;99625.19;;;5.95;100.00
65329;BME280;51941;52.210;5.158;2023-03-14T10:02:45;99630.88;;;5.80;100.00
65329;BME280;51941;52.210;5.158;2023-03-14T10:05:15;99645.63;;;5.81;100.00
65329;BME280;51941;52.210;5.158;2023-03-14T10:07:44;99626.75;;;5.61;100.00
65329;BME280;51941;52.210;5.158;2023-03-14T10:10:15;99646.97;;;5.72;100.00
65329;BME280;51941;52.210;5.158;2023-03-14T10:12:45;99678.41;;;5.90;100.00
65329;BME280;51941;52.210;5.158;2023-03-14T10:15:14;99637.19;;;5.67;100.00
65329;BME280;51941;52.210;5.158;2023-03-14T10:17:50;99681.72;;;6.21;100.00
65329;BME280;51941;52.210;5.158;2023-03-14T10:20:29;99705.69;;;6.47;100.00
65329;BME280;51941;52.210;5.158;2023-03-14T10:23:00;99699.44;;;6.65;100.00
65329;BME280;51941;52.210;5.158;2023-03-14T10:25:30;99653.13;;;6.36;100.00
65329;BME280;51941;52.210;5.158;2023-03-14T10:27:57;99715.44;;;6.75;100.00
65329;BME280;51941;52.210;5.158;2023-03-14T10:30:30;99725.50;;;6.78;100.00
65329;BME280;51941;52.210;5.158;2023-03-14T10:33:08;99733.47;;;6.83;100.00
65329;BME280;51941;52.210;5.158;2023-03-14T10:35:35;99742.56;;;6.64;100.00
65329;BME280;51941;52.210;5.158;2023-03-14T10:38:03;99771.91;;;6.84;99.36
65329;BME280;51941;52.210;5.158;2023-03-14T10:40:31;99774.22;;;6.57;96.81
65329;BME280;51941;52.210;5.158;2023-03-14T10:43:00;99783.38;;;6.55;93.47
65329;BME280;51941;52.210;5.158;2023-03-14T10:45:34;99801.22;;;6.65;91.73
65329;BME280;51941;52.210;5.158;2023-03-14T10:48:22;99819.16;;;6.68;90.07
65329;BME280;51941;52.210;5.158;2023-03-14T10:50:55;99822.34;;;6.58;87.86
65329;BME280;51941;52.210;5.158;2023-03-14T10:53:24;99831.50;;;6.79;88.18
65329;BME280;51941;52.210;5.158;2023-03-14T10:55:52;99827.97;;;6.62;86.49
65329;BME280;51941;52.210;5.158;2023-03-14T10:58:23;99852.56;;;6.55;86.97
65329;BME280;51941;52.210;5.158;2023-03-14T11:00:57;99859.16;;;6.70;86.24
65329;BME280;51941;52.210;5.158;2023-03-14T11:03:26;99831.25;;;6.57;84.52
65329;BME280;51941;52.210;5.158;2023-03-14T11:05:57;99842.47;;;6.76;82.84
65329;BME280;51941;52.210;5.158;2023-03-14T11:08:31;99853.22;;;6.86;82.70
65329;BME280;51941;52.210;5.158;2023-03-14T11:11:07;99890.69;;;7.28;78.88
65329;BME280;51941;52.210;5.158;2023-03-14T11:13:41;99893.56;;;7.38;77.83
65329;BME280;51941;52.210;5.158;2023-03-14T11:16:18;99911.63;;;7.58;78.00
65329;BME280;51941;52.210;5.158;2023-03-14T11:21:56;99924.09;;;7.27;72.61
65329;BME280;51941;52.210;5.158;2023-03-14T11:24:48;99942.56;;;7.39;72.27
65329;BME280;51941;52.210;5.158;2023-03-14T11:27:22;99955.47;;;7.06;72.03
65329;BME280;51941;52.210;5.158;2023-03-14T11:29:55;99933.41;;;6.95;71.54
65329;BME280;51941;52.210;5.158;2023-03-14T11:32:35;99965.88;;;7.12;67.91
65329;BME280;51941;52.210;5.158;2023-03-14T11:35:05;99994.72;;;7.19;65.15
65329;BME280;51941;52.210;5.158;2023-03-14T11:37:44;99973.53;;;7.02;62.05
65329;BME280;51941;52.210;5.158;2023-03-14T11:40:17;99988.06;;;7.28;62.85
65329;BME280;51941;52.210;5.158;2023-03-14T11:42:49;99996.13;;;7.45;61.58
65329;BME280;51941;52.210;5.158;2023-03-14T11:45:22;99998.53;;;7.35;57.64
65329;BME280;51941;52.210;5.158;2023-03-14T11:48:05;100019.78;;;7.21;55.79
65329;BME280;51941;52.210;5.158;2023-03-14T11:50:34;100014.88;;;7.25;55.83
65329;BME280;51941;52.210;5.158;2023-03-14T11:53:05;100011.22;;;7.26;56.39
65329;BME280;51941;52.210;5.158;2023-03-14T11:55:38;100037.47;;;7.44;57.71
65329;BME280;51941;52.210;5.158;2023-03-14T11:58:13;100030.69;;;7.48;58.00
65329;BME280;51941;52.210;5.158;2023-03-14T12:00:42;100040.41;;;7.36;57.71
65329;BME280;51941;52.210;5.158;2023-03-14T12:03:16;100031.56;;;7.19;57.17
65329;BME280;51941;52.210;5.158;2023-03-14T12:05:52;100052.44;;;7.32;54.54
65329;BME280;51941;52.210;5.158;2023-03-14T12:08:47;100071.78;;;7.38;54.46
65329;BME280;51941;52.210;5.158;2023-03-14T12:11:22;100068.94;;;7.39;54.15
65329;BME280;51941;52.210;5.158;2023-03-14T12:13:52;100070.56;;;7.52;53.33
65329;BME280;51941;52.210;5.158;2023-03-14T12:16:41;100083.81;;;7.57;53.02
65329;BME280;51941;52.210;5.158;2023-03-14T12:19:36;100079.34;;;7.57;55.13
65329;BME280;51941;52.210;5.158;2023-03-14T12:22:23;100095.16;;;7.69;52.80
65329;BME280;51941;52.210;5.158;2023-03-14T12:24:55;100097.56;;;7.59;48.38
65329;BME280;51941;52.210;5.158;2023-03-14T12:27:44;100102.94;;;7.52;48.49
65329;BME280;51941;52.210;5.158;2023-03-14T12:30:24;100103.75;;;7.64;48.16
65329;BME280;51941;52.210;5.158;2023-03-14T12:33:20;100113.47;;;7.64;47.42
65329;BME280;51941;52.210;5.158;2023-03-14T12:35:49;100088.84;;;7.47;48.02
65329;BME280;51941;52.210;5.158;2023-03-14T12:38:20;100120.56;;;7.63;47.11
65329;BME280;51941;52.210;5.158;2023-03-14T12:40:56;100109.22;;;7.40;47.08
65329;BME280;51941;52.210;5.158;2023-03-14T12:43:29;100112.66;;;7.40;48.06
65329;BME280;51941;52.210;5.158;2023-03-14T12:46:20;100138.91;;;7.17;48.92
65329;BME280;51941;52.210;5.158;2023-03-14T12:48:48;100131.34;;;7.20;48.53
65329;BME280;51941;52.210;5.158;2023-03-14T12:51:17;100148.97;;;7.08;49.54
65329;BME280;51941;52.210;5.158;2023-03-14T12:53:59;100148.81;;;7.33;50.00
65329;BME280;51941;52.210;5.158;2023-03-14T12:56:45;100124.09;;;7.34;48.61
65329;BME280;51941;52.210;5.158;2023-03-14T12:59:29;100159.28;;;7.63;47.98
65329;BME280;51941;52.210;5.158;2023-03-14T13:02:00;100169.03;;;7.74;48.16
65329;BME280;51941;52.210;5.158;2023-03-14T13:04:29;100182.09;;;7.92;48.55
65329;BME280;51941;52.210;5.158;2023-03-14T13:06:58;100175.69;;;7.88;47.93
65329;BME280;51941;52.210;5.158;2023-03-14T13:09:49;100186.44;;;7.98;46.80
65329;BME280;51941;52.210;5.158;2023-03-14T13:12:25;100173.16;;;8.17;48.15
65329;BME280;51941;52.210;5.158;2023-03-14T13:14:58;100169.72;;;7.81;46.10
65329;BME280;51941;52.210;5.158;2023-03-14T13:17:30;100206.25;;;7.89;46.09
65329;BME280;51941;52.210;5.158;2023-03-14T13:20:01;100210.97;;;7.99;46.29
65329;BME280;51941;52.210;5.158;2023-03-14T13:22:33;100198.16;;;7.79;46.90
65329;BME280;51941;52.210;5.158;2023-03-14T13:25:05;100210.72;;;7.89;46.34
65329;BME280;51941;52.210;5.158;2023-03-14T13:27:34;100209.59;;;8.08;46.40